createdAt,value
2023-08-20T00:00:01.618Z,97887.61
2023-08-20T00:02:33.309Z,97885.90
2023-08-20T00:05:03.778Z,97881.65
2023-08-20T00:07:32.481Z,97880.02
2023-08-20T00:10:00.618Z,97878.00
2023-08-20T00:12:28.416Z,97875.28
2023-08-20T00:15:06.275Z,97872.41
2023-08-20T00:17:36.452Z,97875.14
2023-08-20T00:20:11.226Z,97870.14
2023-08-20T00:22:39.843Z,97869.93
2023-08-20T00:25:08.817Z,97869.05
2023-08-20T00:27:37.060Z,97866.89
2023-08-20T00:30:05.710Z,97869.33
2023-08-20T00:32:33.836Z,97868.09
2023-08-20T00:35:04.003Z,97865.86
2023-08-20T00:37:32.490Z,97865.91
2023-08-20T00:40:01.225Z,97863.52
2023-08-20T00:42:29.098Z,97869.77
2023-08-20T00:44:57.030Z,97869.91
2023-08-20T00:47:25.202Z,97869.58
2023-08-20T00:49:53.868Z,97866.59
2023-08-20T00:52:22.584Z,97866.80
2023-08-20T00:54:51.302Z,97865.04
2023-08-20T00:57:20.599Z,97865.65
2023-08-20T00:59:52.247Z,97860.91
2023-08-20T01:02:22.340Z,97863.71
2023-08-20T01:04:50.514Z,97869.33
2023-08-20T01:07:18.389Z,97872.41
2023-08-20T01:10:05.249Z,97871.34
2023-08-20T01:12:35.611Z,97873.35
2023-08-20T01:15:03.839Z,97876.16
2023-08-20T01:17:32.395Z,97874.94
2023-08-20T01:20:00.537Z,97877.88
2023-08-20T01:22:48.769Z,97875.70
2023-08-20T01:25:31.656Z,97877.64
2023-08-20T01:28:02.640Z,97881.18
2023-08-20T01:30:31.443Z,97883.68
2023-08-20T01:32:59.916Z,97887.08
2023-08-20T01:35:28.039Z,97891.23
2023-08-20T01:38:04.172Z,97893.45
2023-08-20T01:40:32.404Z,97893.14
2023-08-20T01:43:01.161Z,97891.44
2023-08-20T01:45:29.086Z,97890.80
2023-08-20T01:47:57.243Z,97887.53
2023-08-20T01:50:25.255Z,97884.30
2023-08-20T01:52:53.246Z,97887.75
2023-08-20T01:55:21.143Z,97887.77
2023-08-20T01:57:49.030Z,97892.77
2023-08-20T02:00:16.924Z,97894.42
2023-08-20T02:02:44.808Z,97893.59
2023-08-20T02:05:13.966Z,97891.85
2023-08-20T02:07:41.862Z,97889.05
2023-08-20T02:10:10.498Z,97885.35
2023-08-20T02:12:39.861Z,97884.65
2023-08-20T02:15:08.209Z,97883.78
2023-08-20T02:17:37.634Z,97888.63
2023-08-20T02:20:06.563Z,97890.11
2023-08-20T02:22:35.562Z,97889.41
2023-08-20T02:25:03.799Z,97889.45
2023-08-20T02:27:31.643Z,97889.16
2023-08-20T02:30:00.506Z,97886.24
2023-08-20T02:32:28.641Z,97886.83
2023-08-20T02:34:56.569Z,97886.95
2023-08-20T02:37:27.550Z,97885.78
2023-08-20T02:39:55.385Z,97884.75
2023-08-20T02:42:23.267Z,97887.70
2023-08-20T02:44:51.069Z,97886.39
2023-08-20T02:47:20.149Z,97890.06
2023-08-20T02:49:48.407Z,97890.38
2023-08-20T02:52:16.605Z,97893.44
2023-08-20T02:54:44.801Z,97891.64
2023-08-20T02:57:12.606Z,97890.62
2023-08-20T02:59:40.652Z,97888.48
2023-08-20T03:02:08.884Z,97888.41
2023-08-20T03:04:36.861Z,97892.73
2023-08-20T03:07:05.730Z,97896.59
2023-08-20T03:09:33.847Z,97903.09
2023-08-20T03:12:02.097Z,97909.84
2023-08-20T03:14:30.249Z,97907.73
2023-08-20T03:16:58.300Z,97910.86
2023-08-20T03:19:26.322Z,97912.89
2023-08-20T03:21:54.386Z,97914.56
2023-08-20T03:24:22.208Z,97914.88
2023-08-20T03:26:50.014Z,97917.26
2023-08-20T03:29:18.273Z,97918.70
2023-08-20T03:31:46.541Z,97915.51
2023-08-20T03:34:14.842Z,97915.21
2023-08-20T03:36:43.216Z,97912.69
2023-08-20T03:39:13.005Z,97915.76
2023-08-20T03:41:40.877Z,97920.57
2023-08-20T03:44:08.675Z,97921.18
2023-08-20T03:46:36.850Z,97919.02
2023-08-20T03:49:04.722Z,97918.88
2023-08-20T03:51:32.777Z,97920.20
2023-08-20T03:54:00.985Z,97916.54
2023-08-20T03:56:29.420Z,97917.52
2023-08-20T03:58:57.676Z,97921.20
2023-08-20T04:01:25.686Z,97922.21
2023-08-20T04:03:53.854Z,97920.19
2023-08-20T04:06:21.996Z,97916.21
2023-08-20T04:08:50.987Z,97911.66
2023-08-20T04:11:19.972Z,97906.65
2023-08-20T04:13:47.950Z,97901.98
2023-08-20T04:16:17.592Z,97904.48
2023-08-20T04:18:45.790Z,97903.76
2023-08-20T04:21:14.408Z,97910.02
2023-08-20T04:23:43.014Z,97908.34
2023-08-20T04:26:11.324Z,97909.16
2023-08-20T04:28:39.441Z,97909.05
2023-08-20T04:31:07.492Z,97909.15
2023-08-20T04:33:56.216Z,97909.77
2023-08-20T04:36:29.354Z,97913.40
2023-08-20T04:38:57.352Z,97915.31
2023-08-20T04:41:25.707Z,97917.42
2023-08-20T04:43:53.873Z,97919.10
2023-08-20T04:46:22.573Z,97919.20
2023-08-20T04:48:50.630Z,97919.66
2023-08-20T04:51:18.805Z,97919.02
2023-08-20T04:53:48.571Z,97918.34
2023-08-20T04:56:16.675Z,97918.00
2023-08-20T04:58:44.651Z,97916.21
2023-08-20T05:01:13.124Z,97919.83
2023-08-20T05:03:42.258Z,97922.76
2023-08-20T05:06:10.234Z,97920.92
2023-08-20T05:08:38.315Z,97921.52
2023-08-20T05:11:06.661Z,97918.77
2023-08-20T05:13:35.014Z,97920.04
2023-08-20T05:16:03.216Z,97924.23
2023-08-20T05:18:31.107Z,97925.77
2023-08-20T05:20:59.331Z,97928.44
2023-08-20T05:23:27.281Z,97923.69
2023-08-20T05:25:55.366Z,97917.34
2023-08-20T05:28:23.659Z,97910.66
2023-08-20T05:30:58.605Z,97910.08
2023-08-20T05:33:27.165Z,97910.73
2023-08-20T05:35:55.826Z,97916.30
2023-08-20T05:38:24.327Z,97918.91
2023-08-20T05:40:52.515Z,97919.63
2023-08-20T05:43:20.784Z,97920.64
2023-08-20T05:45:49.262Z,97920.93
2023-08-20T05:48:20.579Z,97917.55
2023-08-20T05:50:48.780Z,97917.44
2023-08-20T05:53:16.959Z,97920.08
2023-08-20T05:55:45.060Z,97922.40
2023-08-20T05:58:13.150Z,97917.30
2023-08-20T06:00:41.176Z,97918.96
2023-08-20T06:03:09.117Z,97920.90
2023-08-20T06:05:37.613Z,97923.84
2023-08-20T06:08:05.795Z,97916.02
2023-08-20T06:10:34.056Z,97912.16
2023-08-20T06:13:01.969Z,97911.43
2023-08-20T06:15:29.999Z,97909.38
2023-08-20T06:17:58.259Z,97912.61
2023-08-20T06:20:26.546Z,97904.36
2023-08-20T06:22:54.749Z,97902.07
2023-08-20T06:25:22.624Z,97900.15
2023-08-20T06:27:50.417Z,97902.13
2023-08-20T06:30:18.526Z,97902.17
2023-08-20T06:32:46.394Z,97901.55
2023-08-20T06:35:14.438Z,97901.30
2023-08-20T06:37:42.436Z,97896.65
2023-08-20T06:40:11.031Z,97896.15
2023-08-20T06:42:40.709Z,97895.69
2023-08-20T06:45:10.437Z,97894.48
2023-08-20T06:47:39.293Z,97896.54
2023-08-20T06:50:08.041Z,97899.64
2023-08-20T06:52:35.987Z,97899.95
2023-08-20T06:55:05.290Z,97894.41
2023-08-20T06:57:33.421Z,97895.02
2023-08-20T07:00:01.580Z,97897.02
2023-08-20T07:02:29.890Z,97897.17
2023-08-20T07:04:57.826Z,97893.31
2023-08-20T07:07:25.932Z,97896.20
2023-08-20T07:09:54.155Z,97896.20
2023-08-20T07:12:22.480Z,97899.95
2023-08-20T07:14:50.552Z,97900.35
2023-08-20T07:17:18.477Z,97901.77
2023-08-20T07:19:46.420Z,97902.23
2023-08-20T07:22:14.565Z,97901.14
2023-08-20T07:24:42.532Z,97903.48
2023-08-20T07:27:13.579Z,97902.59
2023-08-20T07:29:42.600Z,97900.68
2023-08-20T07:32:11.390Z,97899.78
2023-08-20T07:34:39.286Z,97900.20
2023-08-20T07:37:07.784Z,97901.98
2023-08-20T07:39:36.278Z,97899.27
2023-08-20T07:42:04.738Z,97898.45
2023-08-20T07:44:32.842Z,97898.48
2023-08-20T07:47:00.986Z,97895.85
2023-08-20T07:49:28.978Z,97897.90
2023-08-20T07:51:57.264Z,97894.00
2023-08-20T07:54:25.281Z,97890.45
2023-08-20T07:56:53.384Z,97888.67
2023-08-20T07:59:21.301Z,97889.33
2023-08-20T08:01:49.729Z,97887.14
2023-08-20T08:04:17.917Z,97885.70
2023-08-20T08:06:45.801Z,97887.52
2023-08-20T08:09:27.487Z,97885.30
2023-08-20T08:11:55.465Z,97885.15
2023-08-20T08:14:23.722Z,97882.05
2023-08-20T08:16:52.093Z,97875.46
2023-08-20T08:19:21.197Z,97872.34
2023-08-20T08:21:49.316Z,97870.70
2023-08-20T08:24:17.281Z,97877.11
2023-08-20T08:26:45.382Z,97882.15
2023-08-20T08:29:13.466Z,97881.77
2023-08-20T08:31:41.630Z,97882.23
2023-08-20T08:34:10.062Z,97881.58
2023-08-20T08:36:38.761Z,97881.40
2023-08-20T08:39:08.235Z,97879.31
2023-08-20T08:41:36.782Z,97878.34
2023-08-20T08:44:05.763Z,97875.60
2023-08-20T08:46:34.009Z,97872.62
2023-08-20T08:49:01.914Z,97872.39
2023-08-20T08:51:31.455Z,97869.00
2023-08-20T08:54:00.004Z,97869.05
2023-08-20T08:56:28.005Z,97866.58
2023-08-20T08:58:56.002Z,97868.59
2023-08-20T09:01:24.010Z,97868.55
2023-08-20T09:03:52.496Z,97866.89
2023-08-20T09:06:20.376Z,97867.19
2023-08-20T09:08:48.435Z,97869.83
2023-08-20T09:11:16.497Z,97867.75
2023-08-20T09:13:45.054Z,97869.58
2023-08-20T09:16:13.786Z,97868.79
2023-08-20T09:18:42.811Z,97871.44
2023-08-20T09:21:11.867Z,97874.02
2023-08-20T09:23:40.535Z,97874.71
2023-08-20T09:26:08.829Z,97870.48
2023-08-20T09:28:44.253Z,97871.83
2023-08-20T09:31:12.863Z,97872.73
2023-08-20T09:33:59.776Z,97871.55
2023-08-20T09:36:32.227Z,97870.16
2023-08-20T09:39:00.152Z,97870.61
2023-08-20T09:41:28.495Z,97872.16
2023-08-20T09:43:59.815Z,97870.70
2023-08-20T09:46:28.642Z,97867.86
2023-08-20T09:48:57.458Z,97866.95
2023-08-20T09:51:26.682Z,97865.45
2023-08-20T09:54:01.730Z,97862.35
2023-08-20T09:56:32.546Z,97865.83
2023-08-20T09:59:01.655Z,97863.73
2023-08-20T10:01:31.556Z,97862.72
2023-08-20T10:04:00.075Z,97865.05
2023-08-20T10:06:29.169Z,97862.40
2023-08-20T10:08:57.615Z,97859.20
2023-08-20T10:11:25.737Z,97855.64
2023-08-20T10:13:54.885Z,97860.05
2023-08-20T10:16:25.263Z,97856.52
2023-08-20T10:18:56.396Z,97854.16
2023-08-20T10:21:28.314Z,97858.59
2023-08-20T10:23:56.462Z,97852.13
2023-08-20T10:26:25.795Z,97850.61
2023-08-20T10:29:14.034Z,97849.34
2023-08-20T10:31:48.962Z,97846.67
2023-08-20T10:34:32.869Z,97847.92
2023-08-20T10:37:02.311Z,97848.56
2023-08-20T10:39:30.679Z,97846.99
2023-08-20T10:42:17.179Z,97843.90
2023-08-20T10:44:59.092Z,97846.83
2023-08-20T10:47:36.437Z,97847.01
2023-08-20T10:50:05.025Z,97844.02
2023-08-20T10:52:33.325Z,97844.31
2023-08-20T10:55:01.472Z,97845.48
2023-08-20T10:57:35.394Z,97844.96
2023-08-20T11:00:12.712Z,97837.98
2023-08-20T11:02:41.948Z,97832.52
2023-08-20T11:05:20.554Z,97829.45
2023-08-20T11:07:49.263Z,97829.39
2023-08-20T11:10:17.783Z,97827.22
2023-08-20T11:12:49.032Z,97825.16
2023-08-20T11:15:17.291Z,97817.75
2023-08-20T11:17:51.331Z,97810.06
2023-08-20T11:20:19.861Z,97812.13
2023-08-20T11:22:48.062Z,97813.89
2023-08-20T11:25:16.138Z,97816.67
2023-08-20T11:27:44.938Z,97816.15
2023-08-20T11:30:14.418Z,97817.13
2023-08-20T11:32:44.438Z,97815.87
2023-08-20T11:35:13.833Z,97811.88
2023-08-20T11:37:41.954Z,97811.95
2023-08-20T11:40:10.548Z,97812.19
2023-08-20T11:42:38.665Z,97808.09
2023-08-20T11:45:07.611Z,97806.79
2023-08-20T11:47:41.997Z,97808.98
2023-08-20T11:50:10.679Z,97808.60
2023-08-20T11:52:40.946Z,97806.75
2023-08-20T11:55:10.597Z,97802.89
2023-08-20T11:57:38.836Z,97797.59
2023-08-20T12:00:12.256Z,97792.48
2023-08-20T12:02:43.795Z,97785.27
2023-08-20T12:05:11.991Z,97784.62
2023-08-20T12:07:40.121Z,97777.31
2023-08-20T12:10:22.784Z,97774.54
2023-08-20T12:12:50.895Z,97774.09
2023-08-20T12:15:22.339Z,97772.02
2023-08-20T12:18:00.542Z,97767.11
2023-08-20T12:20:30.133Z,97767.80
2023-08-20T12:23:02.273Z,97769.45
2023-08-20T12:25:35.499Z,97769.34
2023-08-20T12:28:05.923Z,97771.14
2023-08-20T12:30:38.730Z,97765.95
2023-08-20T12:33:08.110Z,97762.20
2023-08-20T12:35:36.994Z,97759.48
2023-08-20T12:38:05.519Z,97762.73
2023-08-20T12:40:33.734Z,97753.49
2023-08-20T12:43:01.820Z,97749.08
2023-08-20T12:45:30.276Z,97745.27
2023-08-20T12:48:00.887Z,97738.05
2023-08-20T12:50:30.685Z,97734.97
2023-08-20T12:52:58.798Z,97737.32
2023-08-20T12:55:26.872Z,97737.42
2023-08-20T12:57:56.360Z,97731.23
2023-08-20T13:00:26.328Z,97725.83
2023-08-20T13:02:58.451Z,97721.61
2023-08-20T13:05:27.429Z,97722.29
2023-08-20T13:07:55.733Z,97724.73
2023-08-20T13:10:24.184Z,97727.23
2023-08-20T13:12:55.850Z,97725.58
2023-08-20T13:15:24.187Z,97719.61
2023-08-20T13:17:52.431Z,97717.17
2023-08-20T13:20:24.685Z,97712.73
2023-08-20T13:22:53.672Z,97709.98
2023-08-20T13:25:22.708Z,97713.91
2023-08-20T13:27:51.058Z,97712.48
2023-08-20T13:30:20.644Z,97717.35
2023-08-20T13:32:48.807Z,97718.08
2023-08-20T13:35:16.879Z,97718.23
2023-08-20T13:37:45.155Z,97719.30
2023-08-20T13:40:13.134Z,97723.55
2023-08-20T13:42:41.182Z,97721.73
2023-08-20T13:45:09.585Z,97722.16
2023-08-20T13:47:37.532Z,97723.37
2023-08-20T13:50:06.228Z,97724.63
2023-08-20T13:52:34.534Z,97724.23
2023-08-20T13:55:03.486Z,97724.11
2023-08-20T13:57:31.758Z,97721.56
2023-08-20T14:00:00.209Z,97721.40
2023-08-20T14:02:28.445Z,97721.50
2023-08-20T14:04:56.274Z,97723.86
2023-08-20T14:07:25.777Z,97721.84
2023-08-20T14:09:53.964Z,97719.54
2023-08-20T14:12:22.149Z,97720.61
2023-08-20T14:14:50.042Z,97720.81
2023-08-20T14:17:17.981Z,97721.91
2023-08-20T14:19:45.950Z,97721.59
2023-08-20T14:22:14.003Z,97719.31
2023-08-20T14:24:42.176Z,97718.13
2023-08-20T14:27:10.141Z,97720.14
2023-08-20T14:29:38.300Z,97724.32
2023-08-20T14:32:06.251Z,97732.79
2023-08-20T14:34:34.411Z,97735.05
2023-08-20T14:37:02.353Z,97732.24
2023-08-20T14:39:32.775Z,97729.55
2023-08-20T14:42:01.167Z,97726.59
2023-08-20T14:44:29.038Z,97728.50
2023-08-20T14:46:57.230Z,97728.38
2023-08-20T14:49:25.335Z,97724.50
2023-08-20T14:51:57.447Z,97724.98
2023-08-20T14:54:31.219Z,97719.89
2023-08-20T14:56:59.769Z,97717.60
2023-08-20T14:59:27.647Z,97714.34
2023-08-20T15:01:55.611Z,97714.98
2023-08-20T15:04:23.452Z,97718.41
2023-08-20T15:06:51.609Z,97712.50
2023-08-20T15:09:21.620Z,97706.17
2023-08-20T15:11:49.602Z,97704.38
2023-08-20T15:14:17.823Z,97706.36
2023-08-20T15:16:46.879Z,97702.00
2023-08-20T15:19:15.002Z,97701.10
2023-08-20T15:21:42.774Z,97701.81
2023-08-20T15:24:10.828Z,97700.34
2023-08-20T15:26:39.119Z,97704.05
2023-08-20T15:29:06.965Z,97704.51
2023-08-20T15:31:35.096Z,97708.86
2023-08-20T15:34:03.822Z,97705.91
2023-08-20T15:36:31.690Z,97705.23
2023-08-20T15:38:59.779Z,97703.39
2023-08-20T15:41:28.142Z,97708.08
2023-08-20T15:43:56.002Z,97705.42
2023-08-20T15:46:24.923Z,97705.92
2023-08-20T15:48:54.122Z,97704.98
2023-08-20T15:51:22.365Z,97706.74
2023-08-20T15:53:50.239Z,97708.06
2023-08-20T15:56:18.173Z,97711.16
2023-08-20T15:58:45.984Z,97709.77
2023-08-20T16:01:13.843Z,97707.96
2023-08-20T16:03:43.698Z,97710.44
2023-08-20T16:06:11.915Z,97707.96
2023-08-20T16:08:40.297Z,97707.73
2023-08-20T16:11:08.363Z,97708.23
2023-08-20T16:13:36.332Z,97709.59
2023-08-20T16:16:04.441Z,97711.05
2023-08-20T16:18:32.716Z,97712.52
2023-08-20T16:21:00.479Z,97713.66
2023-08-20T16:23:28.426Z,97721.11
2023-08-20T16:25:56.288Z,97720.92
2023-08-20T16:28:24.958Z,97724.98
2023-08-20T16:30:53.418Z,97723.33
2023-08-20T16:33:23.975Z,97731.15
2023-08-20T16:35:52.277Z,97733.55
2023-08-20T16:38:20.230Z,97735.51
2023-08-20T16:40:48.260Z,97736.13
2023-08-20T16:43:16.562Z,97733.66
2023-08-20T16:45:44.599Z,97734.59
2023-08-20T16:48:12.774Z,97739.36
2023-08-20T16:50:41.079Z,97743.02
2023-08-20T16:53:09.065Z,97741.05
2023-08-20T16:55:37.320Z,97739.31
2023-08-20T16:58:05.501Z,97739.64
2023-08-20T17:00:36.055Z,97738.39
2023-08-20T17:03:04.290Z,97741.92
2023-08-20T17:05:32.251Z,97741.98
2023-08-20T17:08:00.108Z,97741.98
2023-08-20T17:10:28.205Z,97741.66
2023-08-20T17:12:56.889Z,97744.66
2023-08-20T17:15:28.059Z,97741.86
2023-08-20T17:17:58.231Z,97744.30
2023-08-20T17:20:27.767Z,97746.19
2023-08-20T17:22:56.000Z,97741.39
2023-08-20T17:25:23.914Z,97740.52
2023-08-20T17:27:52.099Z,97738.20
2023-08-20T17:30:20.241Z,97739.36
2023-08-20T17:32:48.310Z,97742.27
2023-08-20T17:35:16.299Z,97743.82
2023-08-20T17:37:44.241Z,97754.69
2023-08-20T17:40:13.979Z,97770.29
2023-08-20T17:42:41.853Z,97774.25
2023-08-20T17:45:10.536Z,97777.80
2023-08-20T17:47:38.703Z,97783.34
2023-08-20T17:50:07.993Z,97789.98
2023-08-20T17:52:36.190Z,97792.95
2023-08-20T17:55:04.604Z,97798.86
2023-08-20T17:57:32.519Z,97801.05
2023-08-20T18:00:00.390Z,97802.02
2023-08-20T18:02:28.257Z,97808.70
2023-08-20T18:04:56.620Z,97815.30
2023-08-20T18:07:24.680Z,97817.30
2023-08-20T18:09:52.619Z,97817.59
2023-08-20T18:12:20.658Z,97817.36
2023-08-20T18:14:48.795Z,97820.92
2023-08-20T18:17:16.909Z,97826.86
2023-08-20T18:19:44.790Z,97832.65
2023-08-20T18:22:12.915Z,97831.08
2023-08-20T18:24:40.856Z,97831.17
2023-08-20T18:27:08.680Z,97837.20
2023-08-20T18:29:37.213Z,97840.05
2023-08-20T18:32:05.753Z,97841.41
2023-08-20T18:34:34.072Z,97848.32
2023-08-20T18:37:02.150Z,97853.02
2023-08-20T18:39:30.450Z,97860.48
2023-08-20T18:41:58.612Z,97861.89
2023-08-20T18:44:27.077Z,97864.92
2023-08-20T18:46:54.933Z,97868.02
2023-08-20T18:49:23.054Z,97874.17
2023-08-20T18:51:51.040Z,97878.44
2023-08-20T18:54:19.256Z,97875.35
2023-08-20T18:56:47.416Z,97871.77
2023-08-20T18:59:15.255Z,97869.55
2023-08-20T19:01:43.079Z,97869.80
2023-08-20T19:04:11.308Z,97871.80
2023-08-20T19:06:39.501Z,97873.41
2023-08-20T19:09:08.614Z,97875.41
2023-08-20T19:11:36.767Z,97877.19
2023-08-20T19:14:04.690Z,97878.69
2023-08-20T19:16:32.720Z,97879.66
2023-08-20T19:19:00.917Z,97881.33
2023-08-20T19:21:28.947Z,97884.16
2023-08-20T19:23:56.945Z,97886.04
2023-08-20T19:26:24.996Z,97881.06
2023-08-20T19:28:52.861Z,97881.55
2023-08-20T19:31:22.881Z,97881.23
2023-08-20T19:33:51.369Z,97882.56
2023-08-20T19:36:19.319Z,97892.46
2023-08-20T19:38:47.621Z,97890.90
2023-08-20T19:41:15.564Z,97898.89
2023-08-20T19:43:43.581Z,97895.30
2023-08-20T19:46:13.999Z,97891.95
2023-08-20T19:48:41.966Z,97893.65
2023-08-20T19:51:10.302Z,97894.30
2023-08-20T19:53:41.966Z,97895.63
2023-08-20T19:56:09.923Z,97897.19
2023-08-20T19:58:37.993Z,97901.70
2023-08-20T20:01:07.126Z,97901.73
2023-08-20T20:03:35.050Z,97901.73
2023-08-20T20:06:02.893Z,97902.60
2023-08-20T20:08:31.330Z,97899.97
2023-08-20T20:11:00.430Z,97901.65
2023-08-20T20:13:28.334Z,97900.36
2023-08-20T20:15:56.329Z,97901.90
2023-08-20T20:18:24.717Z,97896.59
2023-08-20T20:20:52.578Z,97900.40
2023-08-20T20:23:20.851Z,97900.16
2023-08-20T20:25:49.045Z,97904.48
2023-08-20T20:28:19.208Z,97907.02
2023-08-20T20:30:47.922Z,97903.41
2023-08-20T20:33:15.940Z,97907.71
2023-08-20T20:35:44.080Z,97909.52
2023-08-20T20:38:11.943Z,97911.39
2023-08-20T20:40:42.510Z,97912.05
2023-08-20T20:43:10.629Z,97909.41
2023-08-20T20:45:42.525Z,97909.57
2023-08-20T20:48:10.803Z,97908.60
2023-08-20T20:50:39.197Z,97912.81
2023-08-20T20:53:07.025Z,97914.90
2023-08-20T20:55:34.983Z,97917.58
2023-08-20T20:58:02.927Z,97914.98
2023-08-20T21:00:30.967Z,97913.52
2023-08-20T21:02:59.095Z,97912.24
2023-08-20T21:05:27.177Z,97915.48
2023-08-20T21:07:55.158Z,97917.07
2023-08-20T21:10:23.201Z,97916.78
2023-08-20T21:12:51.255Z,97916.30
2023-08-20T21:15:19.341Z,97920.44
2023-08-20T21:17:47.436Z,97919.61
2023-08-20T21:20:15.588Z,97919.44
2023-08-20T21:22:44.115Z,97917.69
2023-08-20T21:25:12.228Z,97918.89
2023-08-20T21:27:40.812Z,97918.68
2023-08-20T21:30:09.139Z,97918.92
2023-08-20T21:32:37.500Z,97919.80
2023-08-20T21:35:06.268Z,97921.95
2023-08-20T21:37:34.191Z,97921.33
2023-08-20T21:40:02.100Z,97920.27
2023-08-20T21:42:30.325Z,97918.27
2023-08-20T21:44:58.242Z,97913.73
2023-08-20T21:47:27.144Z,97917.59
2023-08-20T21:49:55.462Z,97917.01
2023-08-20T21:52:24.603Z,97913.52
2023-08-20T21:54:52.625Z,97921.08
2023-08-20T21:57:22.345Z,97924.18
2023-08-20T21:59:51.314Z,97921.11
2023-08-20T22:02:19.177Z,97922.84
2023-08-20T22:04:47.088Z,97923.84
2023-08-20T22:07:15.179Z,97926.39
2023-08-20T22:09:43.053Z,97926.77
2023-08-20T22:12:10.941Z,97929.85
2023-08-20T22:14:39.179Z,97928.20
2023-08-20T22:17:07.566Z,97931.34
2023-08-20T22:19:37.593Z,97931.10
2023-08-20T22:22:05.681Z,97930.05
2023-08-20T22:24:33.609Z,97932.74
2023-08-20T22:27:01.814Z,97931.46
2023-08-20T22:29:29.833Z,97935.63
2023-08-20T22:31:58.350Z,97933.40
2023-08-20T22:34:26.552Z,97932.12
2023-08-20T22:36:54.483Z,97931.77
2023-08-20T22:39:22.459Z,97925.75
2023-08-20T22:41:50.276Z,97922.30
2023-08-20T22:44:18.327Z,97919.55
2023-08-20T22:46:46.457Z,97921.84
2023-08-20T22:49:14.731Z,97924.77
2023-08-20T22:51:43.009Z,97924.63
2023-08-20T22:54:11.069Z,97924.55
2023-08-20T22:56:38.925Z,97926.00
2023-08-20T22:59:06.810Z,97924.23
2023-08-20T23:01:35.230Z,97929.14
2023-08-20T23:04:03.251Z,97929.83
2023-08-20T23:06:31.093Z,97930.25
2023-08-20T23:08:58.950Z,97929.66
2023-08-20T23:11:26.907Z,97931.62
2023-08-20T23:13:55.272Z,97932.39
2023-08-20T23:16:23.362Z,97931.40
2023-08-20T23:18:51.365Z,97929.34
2023-08-20T23:21:19.199Z,97929.35
2023-08-20T23:23:47.108Z,97927.13
2023-08-20T23:26:15.281Z,97926.95
2023-08-20T23:28:43.172Z,97927.48
2023-08-20T23:31:12.045Z,97927.20
2023-08-20T23:33:40.098Z,97925.81
2023-08-20T23:36:08.085Z,97924.49
2023-08-20T23:38:41.282Z,97926.92
2023-08-20T23:41:09.457Z,97923.16
2023-08-20T23:43:37.431Z,97923.95
2023-08-20T23:46:05.259Z,97921.27
2023-08-20T23:48:33.221Z,97923.06
2023-08-20T23:51:01.259Z,97921.66
2023-08-20T23:53:29.700Z,97921.30
2023-08-20T23:55:57.968Z,97918.20
2023-08-20T23:58:26.097Z,97915.32
